Terminal Aerodrome Forecast
Issued by NWS

Home | Current Version | Previous Version | Text Only | Print | Product List | Glossary On
Versions: 1 2 3 4 5 6 7 8 9 10 11 12 13 14 15
000
FTUS45 KABQ 182300
TAFSAF
TAF
KSAF 182325Z 1900/1924 15015KT P6SM SKC
     FM190100 12010KT P6SM SKC
     FM190500 12010KT P6SM BKN050
     FM190900 30005KT P6SM SCT025 OVC040
     FM191500 21010KT P6SM BKN040
     FM192200 31010KT P6SM VCSH BKN080=

USA.gov is the U.S. government's official web portal to all federal, state and local government web resources and services.